Norfolk International Airport
KORF : rendu visible

Aérodrome :











RETROUVEZ-NOUS SUR...

 
LOGIN :

S'inscrire | Disclaimer

   EN    FR    IT 

 









Légende :    VFR   VFR Marginal   IFR   IFR Intensif   IFR Très Intensif
Visi : 
Plafond : 
>= 8 km
>= 3000ft
5 à 8 km
1000 à 3000 ft
1500m à 5 km
500 à 1000 ft
800 à 1500m
200 à 500 ft
< 800m
< 200 ft
Symboles :   Orages  Brouillard  Fortes neiges  Fortes précipitations  Vent > 20 kt






- Altitude de l'aérodrome : 26 ft
- Code IATA : ORF


KORF - Norfolk International

DERNIER METAR :
  • 040351Z 20005KT 10SM CLR 06/M02 A3026 RMK AO2 SLP246 T00561017

METARs EXPIRÉS :
  • 040251Z 21004KT 10SM CLR 06/M02 A3026 RMK AO2 SLP245 T00561022 55000
  • 040151Z 19006KT 10SM CLR 07/M02 A3025 RMK AO2 SLP243 T00671022

TAF KORF
Valide du 04 à 00h jusqu'au 05 à 00h UTC


032327Z 0400/0424 20006KT P6SM SKC
FM040800 22007KT P6SM BKN150
FM041300 21012KT P6SM SCT070
FM041900 21008KT P6SM BKN050
FIR KZDC / Amérique du Nord



MET'MAP, la Météo Aéronautique d'un coup d'oeil ! - Copyright ORBIFLY Décembre 2007 - Disclaimer

ORBIFLY MET'MAP TEAM :

Programmation & Développement : Alexandra Zaïnal
Sur une idée originale de : Baudouin d'Aumeries
Assistance à la programmation : Marc-Olivier Méhu
Soutien technique & logistique : Manuel Goepfert

Contact : metmap@orbifly.com




SOURCES & CREDITS :

   NOAA       Earth
Advisory